createdAt,value
2022-11-24T00:01:36.186Z,1.00
2022-11-24T00:04:08.622Z,1.00
2022-11-24T00:06:41.843Z,1.00
2022-11-24T00:09:11.808Z,0.90
2022-11-24T00:11:41.957Z,0.90
2022-11-24T00:14:12.807Z,0.90
2022-11-24T00:16:42.797Z,1.00
2022-11-24T00:19:19.475Z,0.90
2022-11-24T00:21:52.410Z,0.90
2022-11-24T00:24:22.325Z,0.80
2022-11-24T00:26:52.299Z,0.70
2022-11-24T00:29:22.303Z,0.70
2022-11-24T00:31:52.382Z,0.70
2022-11-24T00:34:22.313Z,0.60
2022-11-24T00:36:54.806Z,0.60
2022-11-24T00:39:24.769Z,0.60
2022-11-24T00:41:54.731Z,0.60
2022-11-24T00:44:25.317Z,0.50
2022-11-24T00:46:55.400Z,0.50
2022-11-24T00:49:25.427Z,0.40
2022-11-24T00:51:59.077Z,0.40
2022-11-24T00:54:29.003Z,0.40
2022-11-24T00:56:58.910Z,0.40
2022-11-24T00:59:28.813Z,0.50
2022-11-24T01:01:58.785Z,0.50
2022-11-24T01:04:28.946Z,0.50
2022-11-24T01:07:01.424Z,0.40
2022-11-24T01:09:31.348Z,0.50
2022-11-24T01:12:04.456Z,0.50
2022-11-24T01:14:35.919Z,0.50
2022-11-24T01:17:06.313Z,0.30
2022-11-24T01:19:36.364Z,0.40
2022-11-24T01:22:08.895Z,0.40
2022-11-24T01:24:39.435Z,0.40
2022-11-24T01:27:09.377Z,0.50
2022-11-24T01:29:39.282Z,0.50
2022-11-24T01:32:09.314Z,0.50
2022-11-24T01:34:39.958Z,0.50
2022-11-24T01:37:12.869Z,0.50
2022-11-24T01:39:42.839Z,0.50
2022-11-24T01:42:12.776Z,0.50
2022-11-24T01:44:45.189Z,0.50
2022-11-24T01:47:27.922Z,0.60
2022-11-24T01:49:59.383Z,0.60
2022-11-24T01:52:34.755Z,0.60
2022-11-24T01:55:07.067Z,0.60
2022-11-24T01:57:39.671Z,0.50
2022-11-24T02:00:12.103Z,0.60
2022-11-24T02:02:45.683Z,0.60
2022-11-24T02:05:20.461Z,0.60
2022-11-24T02:07:54.312Z,0.60
2022-11-24T02:10:25.463Z,0.60
2022-11-24T02:12:57.852Z,0.60
2022-11-24T02:15:29.008Z,0.60
2022-11-24T02:17:59.379Z,0.70
2022-11-24T02:20:30.459Z,0.60
2022-11-24T02:23:07.360Z,0.50
2022-11-24T02:25:48.681Z,0.50
2022-11-24T02:28:24.222Z,0.60
2022-11-24T02:30:55.560Z,0.50
2022-11-24T02:33:25.704Z,0.60
2022-11-24T02:35:56.660Z,0.60
2022-11-24T02:38:35.245Z,0.50
2022-11-24T02:41:07.578Z,0.50
2022-11-24T02:43:43.218Z,0.50
2022-11-24T02:46:13.696Z,0.40
2022-11-24T02:48:43.645Z,0.40
2022-11-24T02:51:13.723Z,0.40
2022-11-24T02:53:44.073Z,0.40
2022-11-24T02:56:14.063Z,0.40
2022-11-24T02:58:46.627Z,0.30
2022-11-24T03:01:16.784Z,0.40
2022-11-24T03:03:46.923Z,0.40
2022-11-24T03:06:16.906Z,0.30
2022-11-24T03:08:46.958Z,0.30
2022-11-24T03:11:17.022Z,0.20
2022-11-24T03:13:49.584Z,0.20
2022-11-24T03:16:19.542Z,0.30
2022-11-24T03:18:50.551Z,0.30
2022-11-24T03:21:20.895Z,0.40
2022-11-24T03:23:50.771Z,0.40
2022-11-24T03:26:22.539Z,0.40
2022-11-24T03:28:57.419Z,0.40
2022-11-24T03:31:27.549Z,0.40
2022-11-24T03:33:57.494Z,0.50
2022-11-24T03:36:27.648Z,0.50
2022-11-24T03:38:57.553Z,0.50
2022-11-24T03:41:27.511Z,0.50
2022-11-24T03:44:00.242Z,0.50
2022-11-24T03:46:30.244Z,0.50
2022-11-24T03:49:00.174Z,0.40
2022-11-24T03:51:30.183Z,0.40
2022-11-24T03:54:00.072Z,0.50
2022-11-24T03:56:30.020Z,0.40
2022-11-24T03:59:02.501Z,0.40
2022-11-24T04:01:32.495Z,0.30
2022-11-24T04:04:02.515Z,0.30
2022-11-24T04:06:32.574Z,0.40
2022-11-24T04:09:04.023Z,0.30
2022-11-24T04:12:01.395Z,0.30
2022-11-24T04:14:34.088Z,0.20
2022-11-24T04:17:04.365Z,0.30
2022-11-24T04:19:34.314Z,0.30
2022-11-24T04:22:04.344Z,0.30
2022-11-24T04:24:34.525Z,0.30
2022-11-24T04:27:04.694Z,0.30
2022-11-24T04:29:37.414Z,0.40
2022-11-24T04:32:09.092Z,0.40
2022-11-24T04:34:39.104Z,0.30
2022-11-24T04:37:09.079Z,0.30
2022-11-24T04:39:39.077Z,0.30
2022-11-24T04:42:09.409Z,0.30
2022-11-24T04:44:41.984Z,0.30
2022-11-24T04:47:16.517Z,0.30
2022-11-24T04:49:46.447Z,0.30
2022-11-24T04:52:16.478Z,0.20
2022-11-24T04:54:47.352Z,0.20
2022-11-24T04:57:18.978Z,0.20
2022-11-24T04:59:52.170Z,0.20
2022-11-24T05:02:23.176Z,0.20
2022-11-24T05:04:53.583Z,0.20
2022-11-24T05:07:24.696Z,0.20
2022-11-24T05:10:07.335Z,0.20
2022-11-24T05:12:37.285Z,0.20
2022-11-24T05:15:11.318Z,0.20
2022-11-24T05:17:42.435Z,0.10
2022-11-24T05:20:13.682Z,0.10
2022-11-24T05:22:44.307Z,0.10
2022-11-24T05:25:14.709Z,0.10
2022-11-24T05:27:45.147Z,0.10
2022-11-24T05:30:17.855Z,-0.10
2022-11-24T05:32:48.542Z,-0.20
2022-11-24T05:35:19.104Z,-0.20
2022-11-24T05:37:49.000Z,-0.30
2022-11-24T05:40:19.960Z,-0.30
2022-11-24T05:42:49.794Z,-0.20
2022-11-24T05:45:23.996Z,-0.20
2022-11-24T05:47:55.208Z,-0.30
2022-11-24T05:50:26.538Z,-0.30
2022-11-24T05:52:56.501Z,-0.30
2022-11-24T05:58:13.724Z,-0.40
2022-11-24T06:00:46.932Z,-0.50
2022-11-24T06:03:16.914Z,-0.50
2022-11-24T06:05:49.887Z,-0.60
2022-11-24T06:08:20.338Z,-0.60
2022-11-24T06:10:50.177Z,-0.50
2022-11-24T06:13:21.177Z,-0.50
2022-11-24T06:15:54.396Z,-0.50
2022-11-24T06:18:25.048Z,-0.60
2022-11-24T06:21:10.375Z,-0.50
2022-11-24T06:23:41.008Z,-0.50
2022-11-24T06:26:10.852Z,-0.50
2022-11-24T06:28:41.068Z,-0.40
2022-11-24T06:31:14.225Z,-0.50
2022-11-24T06:33:44.449Z,-0.50
2022-11-24T06:36:16.729Z,-0.50
2022-11-24T06:38:46.921Z,-0.50
2022-11-24T06:41:19.426Z,-0.50
2022-11-24T06:43:50.414Z,-0.40
2022-11-24T06:46:23.444Z,-0.40
2022-11-24T06:48:54.618Z,-0.30
2022-11-24T06:51:26.485Z,-0.30
2022-11-24T06:53:57.537Z,-0.30
2022-11-24T06:56:27.546Z,-0.20
2022-11-24T06:58:57.505Z,-0.20
2022-11-24T07:01:32.485Z,-0.10
2022-11-24T07:04:03.527Z,-0.10
2022-11-24T07:06:34.524Z,-0.10
2022-11-24T07:09:05.831Z,0.00
2022-11-24T07:11:35.659Z,0.00
2022-11-24T07:14:05.928Z,0.10
2022-11-24T07:16:39.980Z,0.10
2022-11-24T07:19:09.920Z,0.10
2022-11-24T07:21:40.065Z,0.10
2022-11-24T07:24:10.635Z,0.10
2022-11-24T07:26:40.613Z,0.10
2022-11-24T07:29:10.822Z,0.20
2022-11-24T07:31:44.493Z,0.20
2022-11-24T07:34:14.932Z,0.30
2022-11-24T07:36:46.209Z,0.30
2022-11-24T07:39:16.594Z,0.30
2022-11-24T07:41:46.727Z,0.30
2022-11-24T07:44:16.533Z,0.40
2022-11-24T07:46:51.478Z,0.40
2022-11-24T07:49:21.958Z,0.50
2022-11-24T07:51:52.945Z,0.60
2022-11-24T07:54:23.880Z,0.60
2022-11-24T07:56:53.833Z,0.60
2022-11-24T07:59:23.749Z,0.60
2022-11-24T08:01:57.563Z,0.70
2022-11-24T08:04:29.450Z,0.70
2022-11-24T08:07:00.145Z,0.80
2022-11-24T08:09:30.340Z,0.80
2022-11-24T08:12:01.007Z,0.90
2022-11-24T08:14:32.156Z,1.00
2022-11-24T08:17:05.346Z,0.80
2022-11-24T08:19:35.293Z,0.90
2022-11-24T08:22:06.229Z,0.90
2022-11-24T08:24:37.101Z,1.00
2022-11-24T08:27:08.228Z,1.00
2022-11-24T08:29:38.072Z,1.00
2022-11-24T08:32:14.137Z,1.10
2022-11-24T08:34:47.104Z,1.20
2022-11-24T08:37:16.942Z,1.20
2022-11-24T08:39:46.802Z,1.10
2022-11-24T08:42:16.924Z,1.20
2022-11-24T08:44:47.454Z,1.20
2022-11-24T08:47:21.619Z,1.30
2022-11-24T08:49:51.420Z,1.30
2022-11-24T08:52:21.440Z,1.40
2022-11-24T08:54:51.900Z,1.40
2022-11-24T08:57:22.645Z,1.50
2022-11-24T08:59:52.514Z,1.50
2022-11-24T09:02:25.478Z,1.50
2022-11-24T09:04:55.338Z,1.70
2022-11-24T09:07:26.194Z,1.80
2022-11-24T09:09:56.261Z,1.90
2022-11-24T09:12:26.099Z,1.90
2022-11-24T09:14:55.898Z,1.90
2022-11-24T09:17:29.130Z,2.10
2022-11-24T09:19:59.673Z,2.20
2022-11-24T09:22:29.633Z,2.30
2022-11-24T09:25:00.024Z,2.50
2022-11-24T09:27:31.552Z,2.60
2022-11-24T09:30:07.119Z,2.80
2022-11-24T09:32:40.630Z,3.10
2022-11-24T09:35:11.723Z,3.40
2022-11-24T09:37:43.692Z,3.60
2022-11-24T09:40:15.876Z,3.90
2022-11-24T09:42:54.901Z,4.00
2022-11-24T09:45:57.554Z,4.10
2022-11-24T09:48:30.894Z,4.20
2022-11-24T09:51:02.634Z,4.30
2022-11-24T09:53:35.384Z,4.20
2022-11-24T09:56:13.744Z,4.20
2022-11-24T09:58:46.783Z,4.40
2022-11-24T10:01:19.839Z,4.40
2022-11-24T10:03:53.960Z,4.40
2022-11-24T10:06:26.790Z,4.30
2022-11-24T10:09:23.473Z,4.30
2022-11-24T10:12:01.585Z,4.30
2022-11-24T10:15:01.935Z,4.40
2022-11-24T10:17:45.522Z,4.40
2022-11-24T10:20:27.383Z,4.40
2022-11-24T10:23:10.615Z,4.50
2022-11-24T10:25:46.634Z,4.60
2022-11-24T10:28:18.679Z,4.50
2022-11-24T10:30:50.083Z,4.50
2022-11-24T10:33:30.097Z,4.50
2022-11-24T10:36:09.679Z,4.50
2022-11-24T10:38:45.373Z,4.60
2022-11-24T10:41:19.567Z,4.70
2022-11-24T10:43:49.636Z,4.60
2022-11-24T10:46:24.409Z,4.70
2022-11-24T10:48:57.036Z,4.70
2022-11-24T10:51:52.941Z,4.60
2022-11-24T10:54:24.653Z,4.70
2022-11-24T10:56:58.686Z,4.70
2022-11-24T10:59:35.133Z,4.70
2022-11-24T11:02:06.918Z,4.70
2022-11-24T11:04:38.363Z,4.70
2022-11-24T11:07:21.122Z,4.70
2022-11-24T11:09:52.178Z,4.80
2022-11-24T11:12:43.456Z,4.80
2022-11-24T11:15:29.866Z,4.80
2022-11-24T11:18:01.615Z,4.80
2022-11-24T11:20:33.641Z,4.80
2022-11-24T11:23:17.656Z,4.80
2022-11-24T11:25:48.536Z,4.80
2022-11-24T11:28:29.006Z,4.80
2022-11-24T11:31:19.715Z,4.80
2022-11-24T11:34:06.138Z,4.80
2022-11-24T11:36:40.574Z,4.80
2022-11-24T11:39:23.844Z,4.80
2022-11-24T11:41:56.425Z,4.70
2022-11-24T11:44:35.798Z,4.70
2022-11-24T11:47:16.873Z,4.60
2022-11-24T11:49:51.107Z,4.70
2022-11-24T11:52:41.332Z,4.50
2022-11-24T11:55:26.384Z,4.40
2022-11-24T11:58:01.697Z,4.50
2022-11-24T12:00:33.306Z,4.50
2022-11-24T12:03:23.142Z,4.50
2022-11-24T12:06:00.306Z,4.50
2022-11-24T12:09:03.299Z,4.50
2022-11-24T12:11:37.177Z,4.50
2022-11-24T12:14:16.606Z,4.60
2022-11-24T12:16:48.407Z,4.60
2022-11-24T12:19:50.152Z,4.60
2022-11-24T12:22:30.284Z,4.50
2022-11-24T12:25:03.835Z,4.50
2022-11-24T12:27:43.917Z,4.60
2022-11-24T12:30:15.924Z,4.60
2022-11-24T12:33:06.909Z,4.60
2022-11-24T12:35:40.897Z,4.60
2022-11-24T12:38:23.894Z,4.60
2022-11-24T12:44:28.732Z,4.60
2022-11-24T12:47:04.314Z,4.50
2022-11-24T12:49:41.438Z,4.50
2022-11-24T12:52:18.298Z,4.40
2022-11-24T12:54:48.421Z,4.50
2022-11-24T12:57:22.379Z,4.40
2022-11-24T13:00:02.428Z,4.50
2022-11-24T13:02:41.057Z,4.40
2022-11-24T13:05:22.721Z,4.40
2022-11-24T13:07:57.820Z,4.40
2022-11-24T13:13:30.913Z,4.40
2022-11-24T13:16:35.551Z,4.30
2022-11-24T13:19:11.976Z,4.30
2022-11-24T13:22:13.342Z,4.40
2022-11-24T13:24:45.419Z,4.50
2022-11-24T13:27:32.247Z,4.50
2022-11-24T13:30:02.663Z,4.40
2022-11-24T13:33:08.225Z,4.30
2022-11-24T13:35:40.881Z,4.30
2022-11-24T13:38:41.690Z,4.30
2022-11-24T13:41:28.030Z,4.20
2022-11-24T13:44:21.680Z,4.20
2022-11-24T13:47:06.609Z,4.20
2022-11-24T13:49:44.201Z,4.30
2022-11-24T13:52:44.346Z,4.30
2022-11-24T13:55:28.288Z,4.30
2022-11-24T13:58:03.221Z,4.30
2022-11-24T14:00:36.170Z,4.30
2022-11-24T14:03:10.064Z,4.30
2022-11-24T14:05:51.472Z,4.40
2022-11-24T14:08:23.364Z,4.30
2022-11-24T14:10:53.839Z,4.30
2022-11-24T14:13:33.036Z,4.30
2022-11-24T14:16:08.928Z,4.20
2022-11-24T14:18:40.839Z,4.20
2022-11-24T14:21:25.957Z,4.20
2022-11-24T14:23:59.284Z,4.20
2022-11-24T14:26:35.644Z,4.10
2022-11-24T14:29:08.658Z,4.10
2022-11-24T14:31:40.005Z,4.10
2022-11-24T14:34:17.004Z,4.10
2022-11-24T14:36:51.103Z,4.00
2022-11-24T14:39:23.178Z,4.10
2022-11-24T14:41:56.127Z,4.00
2022-11-24T14:44:27.966Z,4.10
2022-11-24T14:47:05.658Z,4.00
2022-11-24T14:49:37.004Z,4.00
2022-11-24T14:52:15.780Z,4.00
2022-11-24T14:54:49.811Z,4.00
2022-11-24T14:57:34.941Z,4.00
2022-11-24T15:00:20.483Z,4.00
2022-11-24T15:02:52.345Z,3.90
2022-11-24T15:05:24.763Z,3.90
2022-11-24T15:08:04.229Z,3.90
2022-11-24T15:10:38.681Z,3.80
2022-11-24T15:13:21.537Z,3.90
2022-11-24T15:16:00.556Z,3.90
2022-11-24T15:18:40.074Z,3.90
2022-11-24T15:21:15.784Z,3.90
2022-11-24T15:24:17.101Z,3.90
2022-11-24T15:26:47.645Z,3.80
2022-11-24T15:29:18.092Z,3.80
2022-11-24T15:31:52.543Z,3.90
2022-11-24T15:34:23.562Z,3.90
2022-11-24T15:36:54.544Z,3.90
2022-11-24T15:39:27.317Z,3.90
2022-11-24T15:41:58.052Z,3.80
2022-11-24T15:44:28.026Z,3.80
2022-11-24T15:46:58.876Z,3.70
2022-11-24T15:49:28.760Z,3.70
2022-11-24T15:51:58.760Z,3.80
2022-11-24T15:54:31.402Z,3.80
2022-11-24T15:57:03.174Z,3.80
2022-11-24T15:59:34.631Z,3.80
2022-11-24T16:02:04.904Z,3.80
2022-11-24T16:04:35.987Z,3.90
2022-11-24T16:07:07.571Z,3.80
2022-11-24T16:09:40.517Z,3.80
2022-11-24T16:12:11.017Z,3.90
2022-11-24T16:14:40.987Z,3.90
2022-11-24T16:17:10.908Z,3.90
2022-11-24T16:19:42.153Z,3.90
2022-11-24T16:22:12.239Z,3.90
2022-11-24T16:24:45.721Z,3.80
2022-11-24T16:27:15.611Z,3.90
2022-11-24T16:29:45.404Z,3.90
2022-11-24T16:32:16.381Z,3.90
2022-11-24T16:34:46.686Z,3.90
2022-11-24T16:37:16.632Z,3.90
2022-11-24T16:39:50.454Z,3.90
2022-11-24T16:42:20.872Z,3.90
2022-11-24T16:44:52.156Z,3.90
2022-11-24T16:47:23.446Z,3.90
2022-11-24T16:49:53.355Z,3.90
2022-11-24T16:52:24.224Z,3.80
2022-11-24T16:54:57.924Z,3.90
2022-11-24T16:57:27.913Z,3.90
2022-11-24T16:59:57.787Z,3.90
2022-11-24T17:02:27.799Z,3.90
2022-11-24T17:04:58.003Z,3.90
2022-11-24T17:07:27.992Z,3.90
2022-11-24T17:10:00.716Z,3.90
2022-11-24T17:12:31.767Z,3.90
2022-11-24T17:15:31.084Z,3.90
2022-11-24T17:18:22.304Z,3.90
2022-11-24T17:20:42.547Z,3.80
2022-11-24T17:23:13.611Z,3.80
2022-11-24T17:25:46.183Z,3.80
2022-11-24T17:28:16.059Z,3.90
2022-11-24T17:30:45.920Z,3.90
2022-11-24T17:33:16.020Z,3.90
2022-11-24T17:35:45.888Z,4.00
2022-11-24T17:38:15.791Z,3.90
2022-11-24T17:40:52.517Z,3.90
2022-11-24T17:43:22.473Z,3.90
2022-11-24T17:45:56.664Z,3.90
2022-11-24T17:48:27.013Z,3.90
2022-11-24T17:51:04.058Z,3.90
2022-11-24T17:53:34.543Z,3.90
2022-11-24T17:56:07.539Z,3.90
2022-11-24T17:58:42.711Z,4.00
2022-11-24T18:01:13.471Z,4.00
2022-11-24T18:03:45.857Z,4.00
2022-11-24T18:06:20.691Z,4.10
2022-11-24T18:08:51.292Z,4.10
2022-11-24T18:11:31.075Z,4.00
2022-11-24T18:14:03.232Z,4.00
2022-11-24T18:16:34.389Z,3.90
2022-11-24T18:19:10.994Z,3.90
2022-11-24T18:21:41.667Z,3.90
2022-11-24T18:24:13.054Z,4.00
2022-11-24T18:26:46.702Z,4.00
2022-11-24T18:29:17.819Z,4.10
2022-11-24T18:31:48.082Z,4.00
2022-11-24T18:34:17.988Z,4.10
2022-11-24T18:36:52.126Z,4.10
2022-11-24T18:39:22.225Z,4.10
2022-11-24T18:41:55.404Z,4.10
2022-11-24T18:44:25.404Z,4.00
2022-11-24T18:46:55.421Z,4.10
2022-11-24T18:49:25.285Z,4.00
2022-11-24T18:51:55.590Z,3.90
2022-11-24T18:54:25.814Z,3.80
2022-11-24T18:57:03.266Z,3.80
2022-11-24T18:59:33.755Z,3.70
2022-11-24T19:02:03.698Z,3.60
2022-11-24T19:04:34.110Z,3.50
2022-11-24T19:07:04.412Z,3.50
2022-11-24T19:09:34.863Z,3.50
2022-11-24T19:12:10.355Z,3.40
2022-11-24T19:14:41.672Z,3.20
2022-11-24T19:17:12.644Z,3.20
2022-11-24T19:19:43.030Z,3.10
2022-11-24T19:22:13.449Z,3.10
2022-11-24T19:24:44.426Z,3.00
2022-11-24T19:27:18.584Z,3.10
2022-11-24T19:29:48.455Z,3.10
2022-11-24T19:32:19.652Z,3.20
2022-11-24T19:34:49.600Z,3.10
2022-11-24T19:37:20.332Z,3.00
2022-11-24T19:39:50.254Z,2.90
2022-11-24T19:42:22.792Z,2.90
2022-11-24T19:44:56.416Z,2.90
2022-11-24T19:47:27.950Z,2.90
2022-11-24T19:49:58.931Z,3.00
2022-11-24T19:52:28.977Z,2.90
2022-11-24T19:54:59.835Z,2.90
2022-11-24T19:57:32.954Z,2.80
2022-11-24T20:00:02.843Z,2.90
2022-11-24T20:02:34.276Z,3.00
2022-11-24T20:05:04.356Z,3.10
2022-11-24T20:07:35.223Z,3.20
2022-11-24T20:10:07.898Z,3.20
2022-11-24T20:12:40.707Z,3.20
2022-11-24T20:15:12.330Z,3.20
2022-11-24T20:17:42.220Z,3.20
2022-11-24T20:20:13.181Z,3.20
2022-11-24T20:22:44.388Z,3.20
2022-11-24T20:25:14.885Z,3.30
2022-11-24T20:27:47.377Z,3.30
2022-11-24T20:30:18.227Z,3.30
2022-11-24T20:32:48.133Z,3.40
2022-11-24T20:35:18.549Z,3.50
2022-11-24T20:37:49.493Z,3.50
2022-11-24T20:40:20.221Z,3.60
2022-11-24T20:42:53.732Z,3.70
2022-11-24T20:45:24.780Z,3.70
2022-11-24T20:47:54.657Z,3.80
2022-11-24T20:50:24.641Z,3.80
2022-11-24T20:52:55.519Z,3.80
2022-11-24T20:55:25.459Z,3.90
2022-11-24T20:57:57.952Z,3.90
2022-11-24T21:00:28.529Z,3.90
2022-11-24T21:02:59.167Z,3.90
2022-11-24T21:05:29.054Z,3.80
2022-11-24T21:07:59.170Z,3.80
2022-11-24T21:10:29.544Z,3.80
2022-11-24T21:13:02.283Z,3.70
2022-11-24T21:15:32.193Z,3.70
2022-11-24T21:18:02.108Z,3.60
2022-11-24T21:20:32.492Z,3.60
2022-11-24T21:23:03.295Z,3.60
2022-11-24T21:25:33.383Z,3.70
2022-11-24T21:28:08.117Z,3.70
2022-11-24T21:30:38.958Z,3.80
2022-11-24T21:33:09.372Z,3.80
2022-11-24T21:35:39.742Z,3.70
2022-11-24T21:38:10.716Z,3.80
2022-11-24T21:40:41.011Z,3.80
2022-11-24T21:43:16.319Z,3.70
2022-11-24T21:45:47.322Z,3.70
2022-11-24T21:48:17.247Z,3.60
2022-11-24T21:50:47.159Z,3.50
2022-11-24T21:53:17.054Z,3.40
2022-11-24T21:55:46.968Z,3.30
2022-11-24T21:58:19.500Z,3.10
2022-11-24T22:00:49.450Z,3.00
2022-11-24T22:03:20.080Z,3.00
2022-11-24T22:05:56.502Z,3.00
2022-11-24T22:08:28.229Z,2.90
2022-11-24T22:11:03.640Z,2.80
2022-11-24T22:13:36.294Z,2.60
2022-11-24T22:16:08.873Z,2.60
2022-11-24T22:18:39.967Z,2.50
2022-11-24T22:21:11.230Z,2.50
2022-11-24T22:23:41.195Z,2.40
2022-11-24T22:26:14.472Z,2.30
2022-11-24T22:28:47.975Z,2.30
2022-11-24T22:31:19.927Z,2.10
2022-11-24T22:33:50.924Z,2.00
2022-11-24T22:36:22.864Z,1.80
2022-11-24T22:38:57.327Z,1.70
2022-11-24T22:41:27.735Z,1.70
2022-11-24T22:44:00.360Z,1.60
2022-11-24T22:46:31.218Z,1.60
2022-11-24T22:49:02.168Z,1.50
2022-11-24T22:51:34.795Z,1.30
2022-11-24T22:54:06.643Z,1.40
2022-11-24T22:56:36.644Z,1.30
2022-11-24T22:59:09.389Z,1.20
2022-11-24T23:01:39.317Z,1.10
2022-11-24T23:04:09.220Z,1.10
2022-11-24T23:06:39.690Z,1.10
2022-11-24T23:09:10.945Z,1.10
2022-11-24T23:11:42.379Z,1.20
2022-11-24T23:14:18.678Z,1.20
2022-11-24T23:16:49.457Z,1.20
2022-11-24T23:19:20.099Z,1.30
2022-11-24T23:21:49.949Z,1.40
2022-11-24T23:24:20.858Z,1.40
2022-11-24T23:26:50.991Z,1.40
2022-11-24T23:29:23.560Z,1.40
2022-11-24T23:31:53.482Z,1.40
2022-11-24T23:34:23.449Z,1.40
2022-11-24T23:36:53.411Z,1.40
2022-11-24T23:39:24.423Z,1.40
2022-11-24T23:41:54.269Z,1.60
2022-11-24T23:44:28.009Z,1.50
2022-11-24T23:46:57.888Z,1.50
2022-11-24T23:49:27.744Z,1.50
2022-11-24T23:51:57.588Z,1.80
2022-11-24T23:54:27.479Z,2.10
2022-11-24T23:56:57.335Z,2.20
2022-11-24T23:59:29.847Z,2.30
